Time;durP1;ratioP1;P1;durP2;ratioP2;P2;SDS_P1;SDS_P2;PMS_P1;PMS_P2;Temp;Humidity;BMP_temperature;BMP_pressure;BME280_temperature;BME280_humidity;BME280_pressure;Samples;Min_cycle;Max_cycle;Signal;HPM_P1;HPM_P2
2023/05/12 00:01:16;;;;;;;;;;;;;;;-144.99;94.45;52333.94;5094770;28;20499;-72
2023/05/12 00:03:42;;;;;;;;;;;;;;;-144.99;94.01;52395.09;5099226;28;20003;-74
2023/05/12 00:06:09;;;;;;;;;;;;;;;-144.99;93.78;52378.78;5091524;28;20473;-71
2023/05/12 00:08:35;;;;;;;;;;;;;;;-144.99;93.63;52413.44;5098463;28;19956;-71
2023/05/12 00:11:06;;;;;;;;;;;;;;;-144.99;93.67;52391.03;5090962;28;19937;-70
2023/05/12 00:13:33;;;;;;;;;;;;;;;-144.99;93.29;52333.94;5100781;28;19941;-69
2023/05/12 00:15:59;;;;;;;;;;;;;;;-144.99;93.36;52407.31;5093150;27;19940;-70
2023/05/12 00:18:27;;;;;;;;;;;;;;;-144.99;93.17;52346.19;5087702;28;19950;-70
2023/05/12 00:20:54;;;;;;;;;;;;;;;-144.99;92.89;52374.72;5097187;28;19960;-71
2023/05/12 00:23:21;;;;;;;;;;;;;;;-144.99;93.05;52366.56;5092205;28;19992;-70
2023/05/12 00:25:47;;;;;;;;;;;;;;;-144.99;93.03;52358.41;5098477;28;19940;-68
2023/05/12 00:28:16;;;;;;;;;;;;;;;-144.99;92.84;52374.72;5090411;28;19957;-70
2023/05/12 00:30:42;;;;;;;;;;;;;;;-144.99;92.75;52397.13;5099056;28;20036;-70
2023/05/12 00:33:09;;;;;;;;;;;;;;;-144.99;92.64;52415.47;5100850;28;20091;-70
2023/05/12 00:35:35;;;;;;;;;;;;;;;-144.99;92.28;52386.94;5096277;28;20358;-70
2023/05/12 00:38:02;;;;;;;;;;;;;;;-144.99;92.10;52395.09;5097787;28;20004;-70
2023/05/12 00:40:29;;;;;;;;;;;;;;;-144.99;91.94;52370.63;5104626;28;19936;-70
2023/05/12 00:42:55;;;;;;;;;;;;;;;-144.99;91.32;52327.84;5091302;28;19937;-70
2023/05/12 00:45:23;;;;;;;;;;;;;;;-144.99;90.96;52354.34;5090495;28;20163;-70
2023/05/12 00:47:51;;;;;;;;;;;;;;;-144.99;90.78;52358.41;5090717;28;20381;-72
2023/05/12 00:50:18;;;;;;;;;;;;;;;-144.99;90.09;52366.56;5099442;28;20037;-71
2023/05/12 00:52:44;;;;;;;;;;;;;;;-144.99;89.70;52378.78;5108040;28;19944;-75
2023/05/12 00:55:11;;;;;;;;;;;;;;;-144.99;89.42;52378.78;5109498;28;20258;-76
2023/05/12 00:57:38;;;;;;;;;;;;;;;-144.99;89.06;52399.19;5093404;28;20050;-76
2023/05/12 01:00:06;;;;;;;;;;;;;;;-144.99;88.64;52403.25;5097871;28;19943;-75
2023/05/12 01:02:35;;;;;;;;;;;;;;;-144.99;88.19;52352.28;5099692;28;19954;-75
2023/05/12 01:05:02;;;;;;;;;;;;;;;-144.99;87.81;52350.25;5098528;28;20346;-76
2023/05/12 01:07:31;;;;;;;;;;;;;;;-144.99;87.27;52362.50;5103114;28;20307;-75
2023/05/12 01:09:58;;;;;;;;;;;;;;;-144.99;86.92;52354.34;5091635;28;20007;-75
2023/05/12 01:12:25;;;;;;;;;;;;;;;-144.99;86.66;52374.72;5101539;28;20028;-75
2023/05/12 01:14:53;;;;;;;;;;;;;;;-144.99;86.15;52354.34;5097917;27;20430;-74
2023/05/12 01:17:21;;;;;;;;;;;;;;;-144.99;85.78;52370.63;5092669;28;20048;-71
2023/05/12 01:19:49;;;;;;;;;;;;;;;-144.99;85.32;52391.03;5092632;28;20300;-70
2023/05/12 01:22:17;;;;;;;;;;;;;;;-144.99;85.57;52366.56;5093228;28;19959;-70
2023/05/12 01:24:46;;;;;;;;;;;;;;;-144.99;85.72;52364.53;5099642;28;20363;-71
2023/05/12 01:27:15;;;;;;;;;;;;;;;-144.99;85.60;52386.94;5098957;28;19972;-69
2023/05/12 01:29:42;;;;;;;;;;;;;;;-144.99;86.95;52407.31;5091873;28;20060;-69
2023/05/12 01:32:09;;;;;;;;;;;;;;;-144.99;85.32;52364.53;5100630;28;20094;-69
2023/05/12 01:34:36;;;;;;;;;;;;;;;-144.99;84.97;52384.91;5095735;28;19977;-69
2023/05/12 01:37:02;;;;;;;;;;;;;;;-144.99;84.87;52378.78;5098598;28;20363;-69
2023/05/12 01:39:29;;;;;;;;;;;;;;;-144.99;84.89;52354.34;5090600;28;20167;-69
2023/05/12 01:41:56;;;;;;;;;;;;;;;-144.99;84.47;52360.44;5094729;28;20042;-69
2023/05/12 01:44:24;;;;;;;;;;;;;;;-144.99;84.06;52364.53;5093474;28;20079;-69
2023/05/12 01:46:51;;;;;;;;;;;;;;;-144.99;83.79;52366.56;5090911;28;19941;-72
2023/05/12 01:49:17;;;;;;;;;;;;;;;-144.99;83.72;52391.03;5094211;28;20346;-69
2023/05/12 01:51:44;;;;;;;;;;;;;;;-144.99;83.52;52342.09;5091295;28;19936;-69
2023/05/12 01:54:10;;;;;;;;;;;;;;;-144.99;83.20;52368.59;5099199;28;19938;-69
2023/05/12 01:56:37;;;;;;;;;;;;;;;-144.99;83.21;52391.03;5092913;28;20013;-69
2023/05/12 01:59:03;;;;;;;;;;;;;;;-144.99;83.07;52350.25;5098947;28;20029;-69
2023/05/12 02:01:31;;;;;;;;;;;;;;;-144.99;83.11;52354.34;5102288;28;20479;-69
2023/05/12 02:03:58;;;;;;;;;;;;;;;-144.99;83.14;52338.03;5096785;28;20044;-69
2023/05/12 02:06:26;;;;;;;;;;;;;;;-144.99;83.01;52391.03;5094500;28;19972;-68
2023/05/12 02:08:52;;;;;;;;;;;;;;;-144.99;82.94;52376.75;5089560;28;19956;-69
2023/05/12 02:11:19;;;;;;;;;;;;;;;-144.99;83.04;52397.13;5090581;28;19940;-73
2023/05/12 02:13:45;;;;;;;;;;;;;;;-144.99;82.78;52391.03;5095465;27;19993;-73
2023/05/12 02:16:12;;;;;;;;;;;;;;;-144.99;82.69;52342.09;5096850;28;20449;-73
2023/05/12 02:18:40;;;;;;;;;;;;;;;-144.99;82.67;52342.09;5089563;28;20016;-72
2023/05/12 02:21:06;;;;;;;;;;;;;;;-144.99;82.65;52370.63;5091749;28;19942;-71
2023/05/12 02:23:33;;;;;;;;;;;;;;;-144.99;82.80;52382.88;5089571;28;20077;-68
2023/05/12 02:25:59;;;;;;;;;;;;;;;-144.99;82.59;52342.09;5088747;28;19986;-69
2023/05/12 02:28:26;;;;;;;;;;;;;;;-144.99;82.80;52340.06;5089811;28;19992;-69
2023/05/12 02:30:53;;;;;;;;;;;;;;;-144.99;82.73;52366.56;5088896;28;20308;-70
2023/05/12 02:33:20;;;;;;;;;;;;;;;-144.99;82.90;52366.56;5087741;28;19935;-70
2023/05/12 02:35:48;;;;;;;;;;;;;;;-144.99;82.81;52395.09;5089029;28;20257;-70
2023/05/12 02:38:15;;;;;;;;;;;;;;;-144.99;83.03;52411.41;5090224;28;20004;-71
2023/05/12 02:40:42;;;;;;;;;;;;;;;-144.99;83.30;52386.94;5090621;28;19938;-70
2023/05/12 02:43:08;;;;;;;;;;;;;;;-144.99;83.45;52346.19;5089365;28;19967;-70
2023/05/12 02:45:35;;;;;;;;;;;;;;;-144.99;83.48;52358.41;5088817;28;20245;-70
2023/05/12 02:48:01;;;;;;;;;;;;;;;-144.99;83.83;52366.56;5088796;28;19997;-71
2023/05/12 02:50:28;;;;;;;;;;;;;;;-144.99;83.97;52378.78;5089008;28;20045;-71
2023/05/12 02:52:56;;;;;;;;;;;;;;;-144.99;84.17;52411.41;5087396;28;19974;-75
2023/05/12 02:55:22;;;;;;;;;;;;;;;-144.99;84.02;52399.19;5100434;28;19988;-76
2023/05/12 02:57:52;;;;;;;;;;;;;;;-144.99;84.43;52382.88;5100668;28;20083;-75
2023/05/12 03:00:18;;;;;;;;;;;;;;;-144.99;84.35;52395.09;5095911;28;20401;-75
2023/05/12 03:02:45;;;;;;;;;;;;;;;-144.99;84.27;52372.69;5093443;28;19989;-75
2023/05/12 03:05:11;;;;;;;;;;;;;;;-144.99;84.50;52368.59;5096087;28;19928;-74
2023/05/12 03:07:38;;;;;;;;;;;;;;;-144.99;84.43;52358.41;5088686;28;20007;-74
2023/05/12 03:10:06;;;;;;;;;;;;;;;-144.99;84.31;52333.94;5092243;28;19993;-74
2023/05/12 03:12:33;;;;;;;;;;;;;;;-144.99;84.52;52342.09;5093954;28;20004;-72
2023/05/12 03:14:59;;;;;;;;;;;;;;;-144.99;84.29;52362.50;5099532;27;20034;-72
2023/05/12 03:17:26;;;;;;;;;;;;;;;-144.99;84.49;52366.56;5087756;28;20057;-72
2023/05/12 03:19:52;;;;;;;;;;;;;;;-144.99;84.68;52333.94;5089288;28;19948;-72
2023/05/12 03:22:19;;;;;;;;;;;;;;;-144.99;84.47;52386.94;5096684;28;20073;-72
2023/05/12 03:24:46;;;;;;;;;;;;;;;-144.99;84.47;52399.19;5092729;28;20387;-71
2023/05/12 03:27:13;;;;;;;;;;;;;;;-144.99;84.28;52401.22;5088811;28;19954;-71
2023/05/12 03:29:40;;;;;;;;;;;;;;;-144.99;84.30;52378.78;5096222;28;19938;-71
2023/05/12 03:32:07;;;;;;;;;;;;;;;-144.99;84.05;52382.88;5087309;28;19988;-71
2023/05/12 03:34:34;;;;;;;;;;;;;;;-144.99;84.22;52372.69;5095885;28;20035;-73
2023/05/12 03:37:00;;;;;;;;;;;;;;;-144.99;84.20;52384.91;5090098;28;19966;-74
2023/05/12 03:39:27;;;;;;;;;;;;;;;-144.99;84.26;52366.56;5087301;28;19938;-73
2023/05/12 03:41:53;;;;;;;;;;;;;;;-144.99;84.26;52366.56;5088500;28;20057;-73
2023/05/12 03:44:21;;;;;;;;;;;;;;;-144.99;84.24;52362.50;5091600;28;20385;-73
2023/05/12 03:46:48;;;;;;;;;;;;;;;-144.99;83.98;52366.56;5099887;28;19981;-73
2023/05/12 03:49:14;;;;;;;;;;;;;;;-144.99;84.06;52366.56;5092323;28;20030;-73
2023/05/12 03:51:41;;;;;;;;;;;;;;;-144.99;84.04;52386.94;5088604;28;19939;-67
2023/05/12 03:54:07;;;;;;;;;;;;;;;-144.99;83.92;52374.72;5093873;28;20010;-69
2023/05/12 03:56:34;;;;;;;;;;;;;;;-144.99;84.10;52354.34;5090774;28;20002;-72
2023/05/12 03:59:01;;;;;;;;;;;;;;;-144.99;83.99;52362.50;5087910;28;20376;-72
2023/05/12 04:01:28;;;;;;;;;;;;;;;-144.99;83.78;52397.13;5099106;28;19942;-72
2023/05/12 04:03:55;;;;;;;;;;;;;;;-144.99;83.91;52370.63;5093438;28;20367;-73
2023/05/12 04:06:21;;;;;;;;;;;;;;;-144.99;83.77;52374.72;5095898;28;19938;-72
2023/05/12 04:08:48;;;;;;;;;;;;;;;-144.99;83.69;52391.03;5095197;28;19963;-72
2023/05/12 04:11:14;;;;;;;;;;;;;;;-144.99;83.77;52386.94;5087261;28;20005;-71
2023/05/12 04:13:41;;;;;;;;;;;;;;;-144.99;83.49;52435.88;5094166;28;19940;-72
2023/05/12 04:16:08;;;;;;;;;;;;;;;-144.99;83.55;52376.75;5091556;28;19938;-70
2023/05/12 04:18:36;;;;;;;;;;;;;;;-144.99;83.50;52374.72;5090396;28;20475;-70
2023/05/12 04:21:03;;;;;;;;;;;;;;;-144.99;83.35;52342.09;5087599;28;19993;-70
2023/05/12 04:23:29;;;;;;;;;;;;;;;-144.99;83.09;52419.56;5086477;28;19958;-70
2023/05/12 04:25:56;;;;;;;;;;;;;;;-144.99;83.35;52358.41;5095812;28;19963;-76
2023/05/12 04:28:22;;;;;;;;;;;;;;;-144.99;83.18;52419.56;5099018;28;19962;-70
2023/05/12 04:30:49;;;;;;;;;;;;;;;-144.99;83.40;52374.72;5087607;28;19960;-70
2023/05/12 04:33:15;;;;;;;;;;;;;;;-144.99;83.69;52348.22;5087419;28;19941;-71
2023/05/12 04:35:43;;;;;;;;;;;;;;;-144.99;83.50;52382.88;5087932;28;20045;-70
2023/05/12 04:38:10;;;;;;;;;;;;;;;-144.99;82.92;52380.84;5087509;28;19962;-71
2023/05/12 04:40:36;;;;;;;;;;;;;;;-144.99;82.55;52384.91;5089159;28;19946;-72
2023/05/12 04:43:03;;;;;;;;;;;;;;;-144.99;82.87;52376.75;5096736;28;20033;-71
2023/05/12 04:45:30;;;;;;;;;;;;;;;-144.99;83.20;52386.94;5096905;28;19934;-72
2023/05/12 04:47:56;;;;;;;;;;;;;;;-144.99;82.82;52344.16;5095842;28;19954;-72
2023/05/12 04:50:23;;;;;;;;;;;;;;;-144.99;82.64;52358.41;5093068;28;19993;-72
2023/05/12 04:52:51;;;;;;;;;;;;;;;-144.99;82.66;52354.34;5098223;28;19967;-72
2023/05/12 04:55:17;;;;;;;;;;;;;;;-144.99;82.39;52370.63;5092122;28;19977;-69
2023/05/12 04:57:44;;;;;;;;;;;;;;;-144.99;82.34;52350.25;5094174;28;19989;-65
2023/05/12 05:00:11;;;;;;;;;;;;;;;-144.99;82.51;52305.41;5092614;28;20056;-68
2023/05/12 05:02:37;;;;;;;;;;;;;;;-144.99;81.50;52370.63;5092997;28;20001;-67
2023/05/12 05:05:04;;;;;;;;;;;;;;;-144.99;81.40;52348.22;5090273;28;19940;-67
2023/05/12 05:07:31;;;;;;;;;;;;;;;-144.99;81.33;52399.19;5096043;28;20016;-68
2023/05/12 05:09:59;;;;;;;;;;;;;;;-144.99;81.22;52378.78;5091020;28;19944;-67
2023/05/12 05:12:26;;;;;;;;;;;;;;;-144.99;81.00;52356.38;5103884;28;19950;-67
2023/05/12 05:14:52;;;;;;;;;;;;;;;-144.99;80.68;52342.09;4748436;27;9999627;-67
2023/05/12 05:17:19;;;;;;;;;;;;;;;-144.99;80.57;52329.88;5098594;28;20059;-67
2023/05/12 05:19:46;;;;;;;;;;;;;;;-144.99;80.55;52344.16;5095955;28;19947;-67
2023/05/12 05:22:12;;;;;;;;;;;;;;;-144.99;80.50;52370.63;5096756;27;19964;-67
2023/05/12 05:24:38;;;;;;;;;;;;;;;-144.99;80.46;52374.72;5096194;28;20381;-67
2023/05/12 05:27:06;;;;;;;;;;;;;;;-144.99;80.51;52360.44;5090573;28;20050;-67
2023/05/12 05:29:33;;;;;;;;;;;;;;;-144.99;80.24;52352.28;5095698;28;20027;-68
2023/05/12 05:31:59;;;;;;;;;;;;;;;-144.99;80.43;52346.19;5091565;28;19967;-68
2023/05/12 05:34:26;;;;;;;;;;;;;;;-144.99;80.49;52321.72;5094309;28;20006;-67
2023/05/12 05:36:53;;;;;;;;;;;;;;;-144.99;80.43;52342.09;5088937;28;19932;-67
2023/05/12 05:39:19;;;;;;;;;;;;;;;-144.99;80.08;52346.19;5092678;28;19942;-67
2023/05/12 05:41:46;;;;;;;;;;;;;;;-144.99;80.20;52358.41;5088907;28;19940;-67
2023/05/12 05:44:14;;;;;;;;;;;;;;;-144.99;79.88;52354.34;5093514;28;20016;-67
2023/05/12 05:46:40;;;;;;;;;;;;;;;-144.99;79.82;52370.63;5089284;28;19963;-67
2023/05/12 05:49:07;;;;;;;;;;;;;;;-144.99;79.65;52346.19;5091177;28;20018;-67
2023/05/12 05:51:33;;;;;;;;;;;;;;;-144.99;79.70;52354.34;5090779;27;19975;-68
2023/05/12 05:54:00;;;;;;;;;;;;;;;-144.99;79.52;52307.47;5087163;28;20191;-67
2023/05/12 05:56:26;;;;;;;;;;;;;;;-144.99;79.43;52350.25;5086875;28;20294;-67
2023/05/12 05:58:53;;;;;;;;;;;;;;;-144.99;79.17;52336.00;5095901;28;20014;-69
2023/05/12 06:01:21;;;;;;;;;;;;;;;-144.99;78.84;52350.25;5090255;28;19947;-67
2023/05/12 06:03:47;;;;;;;;;;;;;;;-144.99;78.71;52307.47;5103139;28;19963;-67
2023/05/12 06:06:14;;;;;;;;;;;;;;;-144.99;78.43;52382.88;5100634;28;20022;-68
2023/05/12 06:08:41;;;;;;;;;;;;;;;-144.99;78.20;52325.81;5089903;28;20054;-67
2023/05/12 06:11:07;;;;;;;;;;;;;;;-144.99;78.01;52325.81;5101936;28;20354;-69
2023/05/12 06:13:35;;;;;;;;;;;;;;;-144.99;77.87;52346.19;5095360;27;19936;-68
2023/05/12 06:16:01;;;;;;;;;;;;;;;-144.99;77.53;52350.25;5094841;28;20045;-66
2023/05/12 06:18:29;;;;;;;;;;;;;;;-144.99;77.71;52319.69;5088977;28;20454;-67
2023/05/12 06:20:55;;;;;;;;;;;;;;;-144.99;77.43;52342.09;5090159;28;19992;-67
2023/05/12 06:23:22;;;;;;;;;;;;;;;-144.99;77.36;52317.66;5085620;28;19992;-67
2023/05/12 06:25:49;;;;;;;;;;;;;;;-144.99;77.14;52346.19;5096594;28;19971;-67
2023/05/12 06:28:16;;;;;;;;;;;;;;;-144.99;77.08;52340.06;5093572;28;19928;-67
2023/05/12 06:30:42;;;;;;;;;;;;;;;-144.99;76.95;52323.75;5096650;28;19962;-67
2023/05/12 06:33:09;;;;;;;;;;;;;;;-144.99;76.88;52338.03;5086341;28;19966;-67
2023/05/12 06:35:37;;;;;;;;;;;;;;;-144.99;76.86;52336.00;5086819;28;20031;-67
2023/05/12 06:38:03;;;;;;;;;;;;;;;-144.99;76.53;52333.94;5085790;28;20097;-67
2023/05/12 06:40:30;;;;;;;;;;;;;;;-144.99;76.31;52301.34;5096162;28;19961;-66
2023/05/12 06:42:56;;;;;;;;;;;;;;;-144.99;76.32;52333.94;5094873;28;20468;-63
2023/05/12 06:45:23;;;;;;;;;;;;;;;-144.99;76.41;52329.88;5091427;28;19928;-62
2023/05/12 06:47:50;;;;;;;;;;;;;;;-144.99;76.34;52301.34;5088891;28;19989;-55
2023/05/12 06:50:16;;;;;;;;;;;;;;;-144.99;75.78;52299.31;4739007;27;9999875;-68
2023/05/12 06:52:44;;;;;;;;;;;;;;;-144.99;75.53;52268.72;5087331;28;19939;-69
2023/05/12 06:55:11;;;;;;;;;;;;;;;-144.99;74.88;52297.25;5088111;28;19939;-67
2023/05/12 06:57:38;;;;;;;;;;;;;;;-144.99;74.86;52297.25;5095547;28;19962;-67
2023/05/12 07:00:04;;;;;;;;;;;;;;;-144.99;74.43;52244.28;5094234;28;20053;-67
2023/05/12 07:02:31;;;;;;;;;;;;;;;-144.99;74.06;52260.56;5090637;28;20431;-67
2023/05/12 07:04:57;;;;;;;;;;;;;;;-144.99;73.57;52256.50;5086170;28;19994;-67
2023/05/12 07:07:24;;;;;;;;;;;;;;;-144.99;73.25;52272.81;5099054;28;19989;-67
2023/05/12 07:09:52;;;;;;;;;;;;;;;-144.99;73.22;52236.13;5093629;28;19973;-67
2023/05/12 07:12:18;;;;;;;;;;;;;;;-144.99;72.97;52276.88;5096383;28;19963;-68
2023/05/12 07:14:45;;;;;;;;;;;;;;;-144.99;72.76;52297.25;5100835;27;20037;-67
2023/05/12 07:17:11;;;;;;;;;;;;;;;-144.99;72.54;52244.28;5094748;28;20708;-67
2023/05/12 07:19:39;;;;;;;;;;;;;;;-144.99;72.84;52264.66;5087213;28;19976;-67
2023/05/12 07:22:05;;;;;;;;;;;;;;;-144.99;72.24;52291.16;5091345;28;20300;-67
2023/05/12 07:24:32;;;;;;;;;;;;;;;-144.99;72.33;52333.94;5085328;28;20080;-67
2023/05/12 07:27:00;;;;;;;;;;;;;;;-144.99;72.17;52250.38;5092497;28;19938;-67
2023/05/12 07:29:26;;;;;;;;;;;;;;;-144.99;71.97;52248.34;5097332;28;19941;-68
2023/05/12 07:31:53;;;;;;;;;;;;;;;-144.99;71.82;52256.50;5086319;28;19942;-68
2023/05/12 07:34:20;;;;;;;;;;;;;;;-144.99;71.62;52227.97;5093802;28;20490;-67
2023/05/12 07:36:46;;;;;;;;;;;;;;;-144.99;71.46;52240.19;5094216;28;19931;-67
2023/05/12 07:39:13;;;;;;;;;;;;;;;-144.99;71.45;52280.97;5086710;28;20056;-67
2023/05/12 07:41:40;;;;;;;;;;;;;;;-144.99;71.19;52278.91;5097781;28;20004;-68
2023/05/12 07:44:08;;;;;;;;;;;;;;;-144.99;71.24;52276.88;5090164;28;20005;-68
2023/05/12 07:46:35;;;;;;;;;;;;;;;-144.99;71.17;52276.88;5089001;28;19938;-68
2023/05/12 07:49:01;;;;;;;;;;;;;;;-144.99;70.46;52238.16;5089762;28;20374;-68
2023/05/12 07:51:28;;;;;;;;;;;;;;;-144.99;69.93;52223.88;5096659;28;19938;-68
2023/05/12 07:53:56;;;;;;;;;;;;;;;-144.99;70.16;52278.91;5099181;28;20052;-68
2023/05/12 07:56:23;;;;;;;;;;;;;;;-144.99;70.03;52238.16;5102510;28;19938;-68
2023/05/12 07:58:50;;;;;;;;;;;;;;;-144.99;69.61;52250.38;5093138;28;20008;-68
2023/05/12 08:01:19;;;;;;;;;;;;;;;-144.99;69.55;52207.59;5093049;28;20033;-68
2023/05/12 08:03:46;;;;;;;;;;;;;;;-144.99;69.26;52219.81;5092577;28;19971;-68
2023/05/12 08:06:12;;;;;;;;;;;;;;;-144.99;68.91;52230.00;5087144;28;19932;-69
2023/05/12 08:08:39;;;;;;;;;;;;;;;-144.99;69.07;52201.47;5093470;28;20066;-67
2023/05/12 08:11:05;;;;;;;;;;;;;;;-144.99;68.49;52187.19;5091888;28;19968;-69
2023/05/12 08:13:32;;;;;;;;;;;;;;;-144.99;68.29;52215.75;5088221;28;19977;-68
2023/05/12 08:15:58;;;;;;;;;;;;;;;-144.99;68.48;52183.13;5095864;27;20285;-68
2023/05/12 08:18:26;;;;;;;;;;;;;;;-144.99;67.65;52181.09;5085242;28;19971;-67
2023/05/12 08:20:53;;;;;;;;;;;;;;;-144.99;67.82;52187.19;5092366;28;20645;-67
2023/05/12 08:23:19;;;;;;;;;;;;;;;-144.99;67.46;52179.06;5096711;28;20393;-68
2023/05/12 08:25:47;;;;;;;;;;;;;;;-144.99;66.89;52187.19;5092301;28;19979;-69
2023/05/12 08:28:14;;;;;;;;;;;;;;;-144.99;66.33;52174.97;5085953;28;19955;-68
2023/05/12 08:30:41;;;;;;;;;;;;;;;-144.99;66.14;52203.50;5088959;28;19983;-69
2023/05/12 08:33:07;;;;;;;;;;;;;;;-144.99;66.25;52195.34;5088997;28;20021;-69
2023/05/12 08:35:35;;;;;;;;;;;;;;;-144.99;66.59;52199.44;5089334;28;20250;-69
2023/05/12 08:38:02;;;;;;;;;;;;;;;-144.99;66.43;52174.97;5091676;28;20374;-68
2023/05/12 08:40:30;;;;;;;;;;;;;;;-144.99;66.70;52191.28;5087378;28;20269;-68
2023/05/12 08:43:13;;;;;;;;;;;;;;;-144.99;66.46;52191.28;5093901;28;20058;-70
2023/05/12 08:45:40;;;;;;;;;;;;;;;-144.99;66.38;52191.28;5094201;28;19944;-70
2023/05/12 08:48:09;;;;;;;;;;;;;;;-144.99;66.55;52162.75;5094063;28;19990;-70
2023/05/12 08:50:38;;;;;;;;;;;;;;;-144.99;65.87;52183.13;5100694;28;20350;-70
2023/05/12 08:53:05;;;;;;;;;;;;;;;-144.99;65.14;52154.59;5099702;28;19969;-70
2023/05/12 08:55:32;;;;;;;;;;;;;;;-144.99;64.19;52213.69;5088575;28;20005;-70
2023/05/12 08:57:58;;;;;;;;;;;;;;;-144.99;64.14;52183.13;5097631;28;19953;-70
2023/05/12 09:00:25;;;;;;;;;;;;;;;-144.99;64.20;52138.28;5094839;28;19954;-70
2023/05/12 09:02:52;;;;;;;;;;;;;;;-144.99;63.92;52172.94;5095647;28;20034;-70
2023/05/12 09:05:19;;;;;;;;;;;;;;;-144.99;63.92;52158.66;5088456;28;19961;-70
2023/05/12 09:07:49;;;;;;;;;;;;;;;-144.99;63.45;52146.44;5098952;28;20023;-68
2023/05/12 09:10:17;;;;;;;;;;;;;;;-144.99;62.93;52162.75;5099289;27;20249;-68
2023/05/12 09:12:45;;;;;;;;;;;;;;;-144.99;61.67;52146.44;5095737;28;20017;-71
2023/05/12 09:15:14;;;;;;;;;;;;;;;-144.99;61.88;52142.38;5098530;27;20426;-70
2023/05/12 09:17:41;;;;;;;;;;;;;;;-144.99;62.00;52140.31;5097707;28;19958;-70
2023/05/12 09:20:09;;;;;;;;;;;;;;;-144.99;60.19;52146.44;5098662;28;19952;-69
2023/05/12 09:22:35;;;;;;;;;;;;;;;-144.99;61.10;52140.31;5099793;28;19973;-69
2023/05/12 09:25:14;;;;;;;;;;;;;;;-144.99;58.80;52150.53;5096683;28;20373;-69
2023/05/12 09:27:40;;;;;;;;;;;;;;;-144.99;59.67;52146.44;5088636;28;20702;-70
2023/05/12 09:30:08;;;;;;;;;;;;;;;-144.99;59.09;52130.13;5092132;28;20038;-70
2023/05/12 09:32:35;;;;;;;;;;;;;;;-144.99;59.27;52170.91;5092345;28;19979;-70
2023/05/12 09:35:02;;;;;;;;;;;;;;;-144.99;59.98;52179.06;5091941;28;19967;-70
2023/05/12 09:37:33;;;;;;;;;;;;;;;-144.99;59.34;52138.28;5088561;28;20024;-70
2023/05/12 09:40:00;;;;;;;;;;;;;;;-144.99;59.41;52146.44;5089743;28;20008;-70
2023/05/12 09:42:29;;;;;;;;;;;;;;;-144.99;59.04;52089.38;5092274;28;19965;-70
2023/05/12 09:44:58;;;;;;;;;;;;;;;-144.99;58.63;52130.13;5088625;28;19932;-70
2023/05/12 09:47:27;;;;;;;;;;;;;;;-144.99;58.39;52089.38;5094970;28;19977;-70
2023/05/12 09:49:54;;;;;;;;;;;;;;;-144.99;58.99;52181.09;5092991;28;19967;-71
2023/05/12 09:52:21;;;;;;;;;;;;;;;-144.99;59.04;52146.44;5095091;28;19958;-71
2023/05/12 09:54:47;;;;;;;;;;;;;;;-144.99;58.60;52121.97;5089790;28;20035;-69
2023/05/12 09:57:15;;;;;;;;;;;;;;;-144.99;57.94;52205.53;5097496;28;20068;-70
2023/05/12 09:59:44;;;;;;;;;;;;;;;-144.99;58.43;52130.13;5087271;28;20399;-69
2023/05/12 10:02:12;;;;;;;;;;;;;;;-144.99;58.02;52146.44;5086478;28;19948;-69
2023/05/12 10:04:44;;;;;;;;;;;;;;;-144.99;58.09;52121.97;5095070;28;19958;-69
2023/05/12 10:07:12;;;;;;;;;;;;;;;-144.99;57.62;52117.91;5103895;28;20046;-72
2023/05/12 10:09:41;;;;;;;;;;;;;;;-144.99;57.11;52117.91;4746090;27;10000362;-71
2023/05/12 10:12:08;;;;;;;;;;;;;;;-144.99;56.99;52146.44;5103269;27;19927;-70
2023/05/12 10:14:35;;;;;;;;;;;;;;;-144.99;56.58;52121.97;5095900;27;20033;-70
2023/05/12 10:17:03;;;;;;;;;;;;;;;-144.99;58.00;52111.78;5090987;28;19946;-70
2023/05/12 10:19:30;;;;;;;;;;;;;;;-144.99;58.02;52134.22;5090840;28;19932;-69
2023/05/12 10:21:57;;;;;;;;;;;;;;;-144.99;57.21;52117.91;5099847;28;20000;-70
2023/05/12 10:24:25;;;;;;;;;;;;;;;-144.99;56.00;52089.38;5087128;28;19987;-71
2023/05/12 10:26:53;;;;;;;;;;;;;;;-144.99;55.48;52097.53;5104041;28;19954;-70
2023/05/12 10:29:20;;;;;;;;;;;;;;;-144.99;55.34;52048.63;5093066;28;19940;-70
2023/05/12 10:31:47;;;;;;;;;;;;;;;-144.99;54.93;52048.63;5093910;28;20003;-70
2023/05/12 10:34:18;;;;;;;;;;;;;;;-144.99;54.89;52056.78;5087889;28;19987;-70
2023/05/12 10:36:46;;;;;;;;;;;;;;;-144.99;54.60;52042.50;5093313;28;19942;-71
2023/05/12 10:39:14;;;;;;;;;;;;;;;-144.99;54.27;52113.84;5087351;28;20130;-70
2023/05/12 10:41:41;;;;;;;;;;;;;;;-144.99;54.47;52121.97;5087571;28;19991;-70
2023/05/12 10:44:07;;;;;;;;;;;;;;;-144.99;54.63;52121.97;5097820;28;19958;-71
2023/05/12 10:46:34;;;;;;;;;;;;;;;-144.99;55.10;52032.31;5087001;28;19994;-71
2023/05/12 10:49:02;;;;;;;;;;;;;;;-144.99;54.77;51999.69;5090964;28;19993;-70
2023/05/12 10:51:31;;;;;;;;;;;;;;;-144.99;54.48;51999.69;5097696;28;19936;-69
2023/05/12 10:53:59;;;;;;;;;;;;;;;-144.99;54.30;51985.44;5087415;28;19973;-70
2023/05/12 10:56:27;;;;;;;;;;;;;;;-144.99;54.87;51973.22;5091889;28;19949;-69
2023/05/12 10:59:06;;;;;;;;;;;;;;;-144.99;54.64;51973.22;5085634;28;19997;-70
2023/05/12 11:01:32;;;;;;;;;;;;;;;-144.99;54.05;51989.50;5087826;28;19991;-70
2023/05/12 11:04:09;;;;;;;;;;;;;;;-144.99;53.23;51979.31;5090616;28;19974;-70
2023/05/12 11:06:37;;;;;;;;;;;;;;;-144.99;52.54;52101.59;5089276;28;19975;-70
2023/05/12 11:09:06;;;;;;;;;;;;;;;-144.99;52.61;52101.59;5092423;28;21554;-70
2023/05/12 11:11:32;;;;;;;;;;;;;;;-144.99;53.52;52142.38;5091656;28;19979;-71
2023/05/12 11:14:00;;;;;;;;;;;;;;;-144.99;53.71;52126.06;5092272;27;20499;-71
2023/05/12 11:16:27;;;;;;;;;;;;;;;-144.99;53.96;52097.53;5085938;28;20272;-69
2023/05/12 11:19:00;;;;;;;;;;;;;;;-144.99;54.00;52111.78;5091444;28;19997;-69
2023/05/12 11:21:27;;;;;;;;;;;;;;;-144.99;54.27;52128.09;5099612;28;19990;-69
2023/05/12 11:23:55;;;;;;;;;;;;;;;-144.99;54.18;52126.06;5094546;28;20039;-70
2023/05/12 11:26:22;;;;;;;;;;;;;;;-144.99;53.83;52138.28;5090526;28;20057;-70
2023/05/12 11:28:48;;;;;;;;;;;;;;;-144.99;53.47;52020.09;5088217;28;19962;-69
2023/05/12 11:31:17;;;;;;;;;;;;;;;-144.99;53.33;51979.31;5100729;28;20012;-69
2023/05/12 11:33:44;;;;;;;;;;;;;;;-144.99;52.61;51971.16;5087527;28;20467;-70
2023/05/12 11:36:10;;;;;;;;;;;;;;;-144.99;52.72;51942.63;5086117;28;19993;-69
2023/05/12 11:38:37;;;;;;;;;;;;;;;-144.99;52.00;51948.75;5085545;28;19961;-69
2023/05/12 11:41:05;;;;;;;;;;;;;;;-144.99;51.87;51950.78;5088154;28;20145;-70
2023/05/12 11:43:32;;;;;;;;;;;;;;;-144.99;52.06;51914.09;5090856;28;19981;-70
2023/05/12 11:45:59;;;;;;;;;;;;;;;-144.99;51.56;51967.09;5091009;28;19954;-70
2023/05/12 11:48:32;;;;;;;;;;;;;;;-144.99;51.79;51938.56;5086384;28;20058;-70
2023/05/12 11:50:58;;;;;;;;;;;;;;;-144.99;51.36;51971.16;5090866;28;20008;-70
2023/05/12 11:53:25;;;;;;;;;;;;;;;-144.99;51.77;52016.00;5091207;27;19962;-70
2023/05/12 11:55:53;;;;;;;;;;;;;;;-144.99;50.45;51958.94;5096363;28;19949;-69
2023/05/12 11:58:21;;;;;;;;;;;;;;;-144.99;50.94;51985.44;5098305;28;19973;-70
2023/05/12 12:00:48;;;;;;;;;;;;;;;-144.99;51.23;51954.88;5084659;28;20236;-69
2023/05/12 12:03:15;;;;;;;;;;;;;;;-144.99;51.47;51940.59;5092959;28;19928;-69
2023/05/12 12:05:43;;;;;;;;;;;;;;;-144.99;50.83;51930.41;5093497;28;19965;-69
2023/05/12 12:08:11;;;;;;;;;;;;;;;-144.99;51.23;51967.09;5092353;28;20015;-69
2023/05/12 12:10:38;;;;;;;;;;;;;;;-144.99;51.47;51914.09;5094918;28;19984;-70
2023/05/12 12:13:04;;;;;;;;;;;;;;;-144.99;51.04;51942.63;5089179;28;20287;-70
2023/05/12 12:15:32;;;;;;;;;;;;;;;-144.99;50.47;51901.88;5099202;28;19955;-71
2023/05/12 12:17:59;;;;;;;;;;;;;;;-144.99;50.36;51934.50;5098549;27;19956;-71
2023/05/12 12:20:25;;;;;;;;;;;;;;;-144.99;50.96;51950.78;5093191;28;20424;-70
2023/05/12 12:22:52;;;;;;;;;;;;;;;-144.99;50.93;51922.25;5090521;28;20013;-71
2023/05/12 12:25:19;;;;;;;;;;;;;;;-144.99;50.60;51979.31;5092195;28;19942;-71